sensor_id;sensor_type;location;lat;lon;timestamp;temperature;humidity
44063;DHT22;29727;47.606;19.130;2023-03-23T00:00:06;9.70;66.70
44063;DHT22;29727;47.606;19.130;2023-03-23T00:02:32;9.70;66.70
44063;DHT22;29727;47.606;19.130;2023-03-23T00:05:02;9.60;66.70
44063;DHT22;29727;47.606;19.130;2023-03-23T00:07:29;9.60;66.80
44063;DHT22;29727;47.606;19.130;2023-03-23T00:09:55;9.60;66.90
44063;DHT22;29727;47.606;19.130;2023-03-23T00:12:27;9.50;67.10
44063;DHT22;29727;47.606;19.130;2023-03-23T00:15:03;9.50;67.10
44063;DHT22;29727;47.606;19.130;2023-03-23T00:17:30;9.50;67.10
44063;DHT22;29727;47.606;19.130;2023-03-23T00:19:58;9.50;67.10
44063;DHT22;29727;47.606;19.130;2023-03-23T00:22:27;9.40;67.20
44063;DHT22;29727;47.606;19.130;2023-03-23T00:24:53;9.40;67.00
44063;DHT22;29727;47.606;19.130;2023-03-23T00:27:19;9.40;67.10
44063;DHT22;29727;47.606;19.130;2023-03-23T00:29:48;9.30;67.80
44063;DHT22;29727;47.606;19.130;2023-03-23T00:32:18;9.30;67.20
44063;DHT22;29727;47.606;19.130;2023-03-23T00:34:46;9.30;67.10
44063;DHT22;29727;47.606;19.130;2023-03-23T00:37:13;9.30;67.10
44063;DHT22;29727;47.606;19.130;2023-03-23T00:39:41;9.20;67.30
44063;DHT22;29727;47.606;19.130;2023-03-23T00:42:11;9.20;67.50
44063;DHT22;29727;47.606;19.130;2023-03-23T00:44:38;9.10;67.50
44063;DHT22;29727;47.606;19.130;2023-03-23T00:47:05;9.10;67.60
44063;DHT22;29727;47.606;19.130;2023-03-23T00:49:33;9.10;66.90
44063;DHT22;29727;47.606;19.130;2023-03-23T00:52:00;9.10;67.50
44063;DHT22;29727;47.606;19.130;2023-03-23T00:54:27;9.10;67.60
44063;DHT22;29727;47.606;19.130;2023-03-23T00:59:19;9.10;67.00
44063;DHT22;29727;47.606;19.130;2023-03-23T01:01:46;9.00;67.60
44063;DHT22;29727;47.606;19.130;2023-03-23T01:04:12;8.90;67.60
44063;DHT22;29727;47.606;19.130;2023-03-23T01:06:41;8.90;67.80
44063;DHT22;29727;47.606;19.130;2023-03-23T01:09:10;8.90;67.80
44063;DHT22;29727;47.606;19.130;2023-03-23T01:11:36;8.90;67.90
44063;DHT22;29727;47.606;19.130;2023-03-23T01:14:04;8.80;67.70
44063;DHT22;29727;47.606;19.130;2023-03-23T01:16:30;8.80;67.50
44063;DHT22;29727;47.606;19.130;2023-03-23T01:18:56;8.80;67.60
44063;DHT22;29727;47.606;19.130;2023-03-23T01:21:22;8.80;67.60
44063;DHT22;29727;47.606;19.130;2023-03-23T01:23:48;8.80;68.10
44063;DHT22;29727;47.606;19.130;2023-03-23T01:26:19;8.70;68.20
44063;DHT22;29727;47.606;19.130;2023-03-23T01:28:46;8.70;68.30
44063;DHT22;29727;47.606;19.130;2023-03-23T01:31:14;8.70;68.40
44063;DHT22;29727;47.606;19.130;2023-03-23T01:33:41;8.70;68.50
44063;DHT22;29727;47.606;19.130;2023-03-23T01:36:11;8.60;68.50
44063;DHT22;29727;47.606;19.130;2023-03-23T01:38:37;8.60;68.40
44063;DHT22;29727;47.606;19.130;2023-03-23T01:41:03;8.60;68.40
44063;DHT22;29727;47.606;19.130;2023-03-23T01:43:29;8.60;68.40
44063;DHT22;29727;47.606;19.130;2023-03-23T01:45:55;8.60;68.50
44063;DHT22;29727;47.606;19.130;2023-03-23T01:48:31;8.50;68.40
44063;DHT22;29727;47.606;19.130;2023-03-23T01:51:06;8.50;68.30
44063;DHT22;29727;47.606;19.130;2023-03-23T01:53:38;8.50;68.10
44063;DHT22;29727;47.606;19.130;2023-03-23T01:56:07;8.50;68.10
44063;DHT22;29727;47.606;19.130;2023-03-23T01:58:37;8.50;68.20
44063;DHT22;29727;47.606;19.130;2023-03-23T02:01:06;8.50;68.20
44063;DHT22;29727;47.606;19.130;2023-03-23T02:03:35;8.50;68.30
44063;DHT22;29727;47.606;19.130;2023-03-23T02:06:02;8.50;68.40
44063;DHT22;29727;47.606;19.130;2023-03-23T02:08:29;8.40;68.60
44063;DHT22;29727;47.606;19.130;2023-03-23T02:10:58;8.40;68.90
44063;DHT22;29727;47.606;19.130;2023-03-23T02:13:24;8.40;68.90
44063;DHT22;29727;47.606;19.130;2023-03-23T02:16:00;8.30;68.80
44063;DHT22;29727;47.606;19.130;2023-03-23T02:26:58;8.20;69.10
44063;DHT22;29727;47.606;19.130;2023-03-23T02:35:08;8.20;69.00
44063;DHT22;29727;47.606;19.130;2023-03-23T02:37:52;8.10;69.00
44063;DHT22;29727;47.606;19.130;2023-03-23T02:40:33;8.10;69.10
44063;DHT22;29727;47.606;19.130;2023-03-23T02:43:01;8.10;69.10
44063;DHT22;29727;47.606;19.130;2023-03-23T02:45:29;8.10;69.00
44063;DHT22;29727;47.606;19.130;2023-03-23T02:47:56;8.10;69.00
44063;DHT22;29727;47.606;19.130;2023-03-23T02:50:25;8.00;68.90
44063;DHT22;29727;47.606;19.130;2023-03-23T02:52:54;8.10;68.90
44063;DHT22;29727;47.606;19.130;2023-03-23T02:55:22;8.00;68.80
44063;DHT22;29727;47.606;19.130;2023-03-23T02:57:52;8.00;69.00
44063;DHT22;29727;47.606;19.130;2023-03-23T03:00:18;8.00;69.10
44063;DHT22;29727;47.606;19.130;2023-03-23T03:02:48;7.90;69.00
44063;DHT22;29727;47.606;19.130;2023-03-23T03:08:44;7.90;69.10
44063;DHT22;29727;47.606;19.130;2023-03-23T03:11:16;7.80;69.10
44063;DHT22;29727;47.606;19.130;2023-03-23T03:14:02;7.90;69.10
44063;DHT22;29727;47.606;19.130;2023-03-23T03:16:45;7.80;68.90
44063;DHT22;29727;47.606;19.130;2023-03-23T03:19:29;7.80;68.70
44063;DHT22;29727;47.606;19.130;2023-03-23T03:21:58;7.80;68.80
44063;DHT22;29727;47.606;19.130;2023-03-23T03:24:26;7.80;68.80
44063;DHT22;29727;47.606;19.130;2023-03-23T03:26:54;7.80;69.00
44063;DHT22;29727;47.606;19.130;2023-03-23T03:29:28;7.70;69.10
44063;DHT22;29727;47.606;19.130;2023-03-23T03:31:59;7.70;69.10
44063;DHT22;29727;47.606;19.130;2023-03-23T03:34:25;7.70;69.00
44063;DHT22;29727;47.606;19.130;2023-03-23T03:36:53;7.70;68.80
44063;DHT22;29727;47.606;19.130;2023-03-23T03:39:20;7.70;68.90
44063;DHT22;29727;47.606;19.130;2023-03-23T03:41:47;7.70;68.90
44063;DHT22;29727;47.606;19.130;2023-03-23T03:44:13;7.60;68.90
44063;DHT22;29727;47.606;19.130;2023-03-23T03:46:40;7.60;69.20
44063;DHT22;29727;47.606;19.130;2023-03-23T03:49:09;7.60;69.30
44063;DHT22;29727;47.606;19.130;2023-03-23T03:51:36;7.60;69.40
44063;DHT22;29727;47.606;19.130;2023-03-23T03:54:02;7.50;69.30
44063;DHT22;29727;47.606;19.130;2023-03-23T03:56:27;7.60;69.10
44063;DHT22;29727;47.606;19.130;2023-03-23T03:58:53;7.50;69.10
44063;DHT22;29727;47.606;19.130;2023-03-23T04:01:21;7.50;69.20
44063;DHT22;29727;47.606;19.130;2023-03-23T04:03:48;7.50;69.20
44063;DHT22;29727;47.606;19.130;2023-03-23T04:06:14;7.50;69.10
44063;DHT22;29727;47.606;19.130;2023-03-23T04:08:41;7.50;69.10
44063;DHT22;29727;47.606;19.130;2023-03-23T04:11:08;7.40;69.10
44063;DHT22;29727;47.606;19.130;2023-03-23T04:13:34;7.40;69.30
44063;DHT22;29727;47.606;19.130;2023-03-23T04:16:00;7.40;69.40
44063;DHT22;29727;47.606;19.130;2023-03-23T04:18:26;7.40;69.40
44063;DHT22;29727;47.606;19.130;2023-03-23T04:20:51;7.40;69.40
44063;DHT22;29727;47.606;19.130;2023-03-23T04:23:21;7.40;69.50
44063;DHT22;29727;47.606;19.130;2023-03-23T04:25:48;7.40;69.60
44063;DHT22;29727;47.606;19.130;2023-03-23T04:28:14;7.30;69.50
44063;DHT22;29727;47.606;19.130;2023-03-23T04:30:42;7.30;69.60
44063;DHT22;29727;47.606;19.130;2023-03-23T04:33:09;7.30;69.70
44063;DHT22;29727;47.606;19.130;2023-03-23T04:35:43;7.30;69.70
44063;DHT22;29727;47.606;19.130;2023-03-23T04:38:11;7.20;69.60
44063;DHT22;29727;47.606;19.130;2023-03-23T04:40:39;7.20;70.30
44063;DHT22;29727;47.606;19.130;2023-03-23T04:43:05;7.20;69.60
44063;DHT22;29727;47.606;19.130;2023-03-23T04:45:33;7.20;69.70
44063;DHT22;29727;47.606;19.130;2023-03-23T04:47:59;7.20;69.60
44063;DHT22;29727;47.606;19.130;2023-03-23T04:50:28;7.20;69.60
44063;DHT22;29727;47.606;19.130;2023-03-23T04:52:56;7.20;69.50
44063;DHT22;29727;47.606;19.130;2023-03-23T04:55:24;7.20;69.70
44063;DHT22;29727;47.606;19.130;2023-03-23T04:57:50;7.20;69.90
44063;DHT22;29727;47.606;19.130;2023-03-23T05:00:17;7.10;70.00
44063;DHT22;29727;47.606;19.130;2023-03-23T05:02:46;7.10;70.10
44063;DHT22;29727;47.606;19.130;2023-03-23T05:05:14;7.10;70.40
44063;DHT22;29727;47.606;19.130;2023-03-23T05:07:40;7.10;70.30
44063;DHT22;29727;47.606;19.130;2023-03-23T05:10:07;7.10;70.40
44063;DHT22;29727;47.606;19.130;2023-03-23T05:12:34;7.10;70.50
44063;DHT22;29727;47.606;19.130;2023-03-23T05:15:00;7.10;70.50
44063;DHT22;29727;47.606;19.130;2023-03-23T05:17:26;7.10;70.50
44063;DHT22;29727;47.606;19.130;2023-03-23T05:19:52;7.10;70.50
44063;DHT22;29727;47.606;19.130;2023-03-23T05:22:18;7.10;70.60
44063;DHT22;29727;47.606;19.130;2023-03-23T05:24:49;7.10;71.10
44063;DHT22;29727;47.606;19.130;2023-03-23T05:27:17;7.20;71.40
44063;DHT22;29727;47.606;19.130;2023-03-23T05:29:45;7.20;71.40
44063;DHT22;29727;47.606;19.130;2023-03-23T05:32:11;7.20;71.60
44063;DHT22;29727;47.606;19.130;2023-03-23T05:34:37;7.20;71.60
44063;DHT22;29727;47.606;19.130;2023-03-23T05:37:03;7.20;71.90
44063;DHT22;29727;47.606;19.130;2023-03-23T05:39:30;7.30;72.00
44063;DHT22;29727;47.606;19.130;2023-03-23T05:41:56;7.30;72.10
44063;DHT22;29727;47.606;19.130;2023-03-23T05:44:22;7.40;72.20
44063;DHT22;29727;47.606;19.130;2023-03-23T05:46:48;7.40;72.10
44063;DHT22;29727;47.606;19.130;2023-03-23T05:49:15;7.50;72.10
44063;DHT22;29727;47.606;19.130;2023-03-23T05:51:44;7.50;72.50
44063;DHT22;29727;47.606;19.130;2023-03-23T05:54:11;7.60;72.40
44063;DHT22;29727;47.606;19.130;2023-03-23T05:56:37;7.60;72.30
44063;DHT22;29727;47.606;19.130;2023-03-23T05:59:03;7.70;72.30
44063;DHT22;29727;47.606;19.130;2023-03-23T06:01:29;7.80;72.30
44063;DHT22;29727;47.606;19.130;2023-03-23T06:03:55;7.80;72.20
44063;DHT22;29727;47.606;19.130;2023-03-23T06:06:25;7.90;72.40
44063;DHT22;29727;47.606;19.130;2023-03-23T06:08:51;7.90;72.80
44063;DHT22;29727;47.606;19.130;2023-03-23T06:11:17;8.00;73.30
44063;DHT22;29727;47.606;19.130;2023-03-23T06:13:42;8.10;74.50
44063;DHT22;29727;47.606;19.130;2023-03-23T06:16:08;8.10;75.40
44063;DHT22;29727;47.606;19.130;2023-03-23T06:18:34;8.10;75.30
44063;DHT22;29727;47.606;19.130;2023-03-23T06:21:03;8.20;76.00
44063;DHT22;29727;47.606;19.130;2023-03-23T06:23:29;8.30;76.70
44063;DHT22;29727;47.606;19.130;2023-03-23T06:26:00;8.30;76.40
44063;DHT22;29727;47.606;19.130;2023-03-23T06:28:27;8.40;76.20
44063;DHT22;29727;47.606;19.130;2023-03-23T06:30:52;8.50;76.10
44063;DHT22;29727;47.606;19.130;2023-03-23T06:33:18;8.60;75.90
44063;DHT22;29727;47.606;19.130;2023-03-23T06:35:44;8.60;75.70
44063;DHT22;29727;47.606;19.130;2023-03-23T06:38:10;8.70;75.60
44063;DHT22;29727;47.606;19.130;2023-03-23T06:40:36;9.00;74.70
44063;DHT22;29727;47.606;19.130;2023-03-23T06:43:03;8.90;75.10
44063;DHT22;29727;47.606;19.130;2023-03-23T06:45:29;9.10;74.70
44063;DHT22;29727;47.606;19.130;2023-03-23T06:47:55;9.20;75.00
44063;DHT22;29727;47.606;19.130;2023-03-23T06:50:21;9.30;73.80
44063;DHT22;29727;47.606;19.130;2023-03-23T06:52:48;9.40;73.40
44063;DHT22;29727;47.606;19.130;2023-03-23T06:55:15;9.50;73.30
44063;DHT22;29727;47.606;19.130;2023-03-23T06:57:41;9.70;73.10
44063;DHT22;29727;47.606;19.130;2023-03-23T07:00:09;9.80;73.60
44063;DHT22;29727;47.606;19.130;2023-03-23T07:02:37;9.90;72.40
44063;DHT22;29727;47.606;19.130;2023-03-23T07:05:03;10.00;72.20
44063;DHT22;29727;47.606;19.130;2023-03-23T07:07:29;10.20;72.40
44063;DHT22;29727;47.606;19.130;2023-03-23T07:09:55;10.30;72.10
44063;DHT22;29727;47.606;19.130;2023-03-23T07:12:22;10.40;71.60
44063;DHT22;29727;47.606;19.130;2023-03-23T07:14:48;10.60;71.80
44063;DHT22;29727;47.606;19.130;2023-03-23T07:17:13;10.80;72.10
44063;DHT22;29727;47.606;19.130;2023-03-23T07:19:39;10.90;70.60
44063;DHT22;29727;47.606;19.130;2023-03-23T07:22:06;11.00;69.60
44063;DHT22;29727;47.606;19.130;2023-03-23T07:24:33;11.20;68.60
44063;DHT22;29727;47.606;19.130;2023-03-23T07:27:01;11.40;68.30
44063;DHT22;29727;47.606;19.130;2023-03-23T07:29:32;11.50;67.90
44063;DHT22;29727;47.606;19.130;2023-03-23T07:32:01;11.70;67.30
44063;DHT22;29727;47.606;19.130;2023-03-23T07:34:27;11.80;67.50
44063;DHT22;29727;47.606;19.130;2023-03-23T07:36:53;12.00;65.70
44063;DHT22;29727;47.606;19.130;2023-03-23T07:39:19;12.10;65.10
44063;DHT22;29727;47.606;19.130;2023-03-23T07:41:45;12.30;64.80
44063;DHT22;29727;47.606;19.130;2023-03-23T07:44:10;12.40;63.90
44063;DHT22;29727;47.606;19.130;2023-03-23T07:46:36;12.50;64.20
44063;DHT22;29727;47.606;19.130;2023-03-23T07:49:02;12.60;63.10
44063;DHT22;29727;47.606;19.130;2023-03-23T07:51:31;12.80;62.40
44063;DHT22;29727;47.606;19.130;2023-03-23T07:53:57;12.90;62.80
44063;DHT22;29727;47.606;19.130;2023-03-23T07:56:23;13.00;62.10
44063;DHT22;29727;47.606;19.130;2023-03-23T07:58:49;13.20;62.50
44063;DHT22;29727;47.606;19.130;2023-03-23T08:01:15;13.30;62.00
44063;DHT22;29727;47.606;19.130;2023-03-23T08:03:41;13.40;61.20
44063;DHT22;29727;47.606;19.130;2023-03-23T08:06:08;13.50;61.30
44063;DHT22;29727;47.606;19.130;2023-03-23T08:08:35;13.70;61.20
44063;DHT22;29727;47.606;19.130;2023-03-23T08:11:01;13.80;60.60
44063;DHT22;29727;47.606;19.130;2023-03-23T08:13:27;14.00;59.80
44063;DHT22;29727;47.606;19.130;2023-03-23T08:15:53;14.10;58.40
44063;DHT22;29727;47.606;19.130;2023-03-23T08:18:18;14.30;58.00
44063;DHT22;29727;47.606;19.130;2023-03-23T08:20:44;14.40;57.40
44063;DHT22;29727;47.606;19.130;2023-03-23T08:23:10;14.50;57.20
44063;DHT22;29727;47.606;19.130;2023-03-23T08:25:36;14.70;57.90
44063;DHT22;29727;47.606;19.130;2023-03-23T08:28:03;14.80;56.10
44063;DHT22;29727;47.606;19.130;2023-03-23T08:30:30;15.00;56.30
44063;DHT22;29727;47.606;19.130;2023-03-23T08:32:57;15.10;55.30
44063;DHT22;29727;47.606;19.130;2023-03-23T08:35:23;15.20;54.80
44063;DHT22;29727;47.606;19.130;2023-03-23T08:37:49;15.40;54.90
44063;DHT22;29727;47.606;19.130;2023-03-23T08:40:21;15.50;54.50
44063;DHT22;29727;47.606;19.130;2023-03-23T08:42:48;15.70;53.90
44063;DHT22;29727;47.606;19.130;2023-03-23T08:45:20;15.80;53.20
44063;DHT22;29727;47.606;19.130;2023-03-23T08:47:47;16.00;53.20
44063;DHT22;29727;47.606;19.130;2023-03-23T08:50:20;16.10;52.70
44063;DHT22;29727;47.606;19.130;2023-03-23T08:52:48;16.20;51.10
44063;DHT22;29727;47.606;19.130;2023-03-23T08:55:14;16.30;50.70
44063;DHT22;29727;47.606;19.130;2023-03-23T08:57:40;16.50;50.30
44063;DHT22;29727;47.606;19.130;2023-03-23T09:00:10;16.60;50.30
44063;DHT22;29727;47.606;19.130;2023-03-23T09:02:41;16.70;50.40
44063;DHT22;29727;47.606;19.130;2023-03-23T09:05:09;16.90;50.30
44063;DHT22;29727;47.606;19.130;2023-03-23T09:07:39;17.00;49.50
44063;DHT22;29727;47.606;19.130;2023-03-23T09:10:06;17.10;49.70
44063;DHT22;29727;47.606;19.130;2023-03-23T09:12:32;17.30;50.00
44063;DHT22;29727;47.606;19.130;2023-03-23T09:14:57;17.30;48.10
44063;DHT22;29727;47.606;19.130;2023-03-23T09:17:23;17.40;48.60
44063;DHT22;29727;47.606;19.130;2023-03-23T09:19:49;17.40;49.20
44063;DHT22;29727;47.606;19.130;2023-03-23T09:22:14;17.40;48.30
44063;DHT22;29727;47.606;19.130;2023-03-23T09:24:45;17.50;48.40
44063;DHT22;29727;47.606;19.130;2023-03-23T09:27:11;17.60;48.10
44063;DHT22;29727;47.606;19.130;2023-03-23T09:29:37;17.70;48.00
44063;DHT22;29727;47.606;19.130;2023-03-23T09:32:03;17.80;47.60
44063;DHT22;29727;47.606;19.130;2023-03-23T09:34:29;17.90;48.00
44063;DHT22;29727;47.606;19.130;2023-03-23T09:36:55;18.00;47.70
44063;DHT22;29727;47.606;19.130;2023-03-23T09:39:21;18.20;47.10
44063;DHT22;29727;47.606;19.130;2023-03-23T09:42:11;18.30;47.00
44063;DHT22;29727;47.606;19.130;2023-03-23T09:48:32;18.60;47.00
44063;DHT22;29727;47.606;19.130;2023-03-23T09:52:04;19.00;45.60
44063;DHT22;29727;47.606;19.130;2023-03-23T09:56:45;19.10;45.00
44063;DHT22;29727;47.606;19.130;2023-03-23T09:59:18;19.20;45.10
44063;DHT22;29727;47.606;19.130;2023-03-23T10:01:51;19.20;45.40
44063;DHT22;29727;47.606;19.130;2023-03-23T10:07:00;19.50;46.00
44063;DHT22;29727;47.606;19.130;2023-03-23T10:09:29;19.60;44.80
44063;DHT22;29727;47.606;19.130;2023-03-23T10:17:29;19.90;44.20
44063;DHT22;29727;47.606;19.130;2023-03-23T10:22:27;20.00;44.00
44063;DHT22;29727;47.606;19.130;2023-03-23T10:25:04;20.00;44.30
44063;DHT22;29727;47.606;19.130;2023-03-23T10:27:46;20.00;43.50
44063;DHT22;29727;47.606;19.130;2023-03-23T10:30:27;20.00;44.00
44063;DHT22;29727;47.606;19.130;2023-03-23T10:38:19;20.00;44.20
44063;DHT22;29727;47.606;19.130;2023-03-23T10:40:54;20.10;44.50
44063;DHT22;29727;47.606;19.130;2023-03-23T10:43:21;20.10;44.00
44063;DHT22;29727;47.606;19.130;2023-03-23T10:45:54;20.10;44.50
44063;DHT22;29727;47.606;19.130;2023-03-23T10:48:28;20.10;43.90
44063;DHT22;29727;47.606;19.130;2023-03-23T10:51:03;20.10;44.20
44063;DHT22;29727;47.606;19.130;2023-03-23T10:53:56;20.10;44.70
44063;DHT22;29727;47.606;19.130;2023-03-23T10:56:26;20.20;44.60
44063;DHT22;29727;47.606;19.130;2023-03-23T10:58:53;20.20;44.60
44063;DHT22;29727;47.606;19.130;2023-03-23T11:01:31;20.20;44.80
44063;DHT22;29727;47.606;19.130;2023-03-23T11:03:58;20.30;44.80
44063;DHT22;29727;47.606;19.130;2023-03-23T11:06:33;20.40;44.50
44063;DHT22;29727;47.606;19.130;2023-03-23T11:09:13;20.50;43.60
44063;DHT22;29727;47.606;19.130;2023-03-23T11:11:42;20.60;43.30
44063;DHT22;29727;47.606;19.130;2023-03-23T11:16:54;20.70;43.40
44063;DHT22;29727;47.606;19.130;2023-03-23T11:19:32;20.70;43.20
44063;DHT22;29727;47.606;19.130;2023-03-23T11:24:35;20.80;43.20
44063;DHT22;29727;47.606;19.130;2023-03-23T11:27:03;20.80;43.60
44063;DHT22;29727;47.606;19.130;2023-03-23T11:29:33;20.90;42.70
44063;DHT22;29727;47.606;19.130;2023-03-23T11:34:45;20.90;42.80
44063;DHT22;29727;47.606;19.130;2023-03-23T11:37:19;20.90;42.60
44063;DHT22;29727;47.606;19.130;2023-03-23T11:39:49;20.90;42.60
44063;DHT22;29727;47.606;19.130;2023-03-23T11:42:24;21.00;43.00
44063;DHT22;29727;47.606;19.130;2023-03-23T11:45:19;21.00;43.60
44063;DHT22;29727;47.606;19.130;2023-03-23T11:54:04;21.10;42.60
44063;DHT22;29727;47.606;19.130;2023-03-23T11:56:38;21.20;42.70
44063;DHT22;29727;47.606;19.130;2023-03-23T11:59:26;21.30;42.10
44063;DHT22;29727;47.606;19.130;2023-03-23T12:12:59;22.20;40.60
44063;DHT22;29727;47.606;19.130;2023-03-23T12:18:18;22.60;39.20
44063;DHT22;29727;47.606;19.130;2023-03-23T12:34:54;23.50;38.90
44063;DHT22;29727;47.606;19.130;2023-03-23T12:48:43;23.50;37.90
44063;DHT22;29727;47.606;19.130;2023-03-23T12:56:54;23.80;37.50
44063;DHT22;29727;47.606;19.130;2023-03-23T13:10:50;24.10;36.60
44063;DHT22;29727;47.606;19.130;2023-03-23T13:14:03;24.20;36.60
44063;DHT22;29727;47.606;19.130;2023-03-23T13:21:43;24.30;36.80
44063;DHT22;29727;47.606;19.130;2023-03-23T13:24:17;24.30;36.70
44063;DHT22;29727;47.606;19.130;2023-03-23T13:26:44;24.30;36.30
44063;DHT22;29727;47.606;19.130;2023-03-23T13:29:16;24.30;36.20
44063;DHT22;29727;47.606;19.130;2023-03-23T13:31:45;24.40;36.20
44063;DHT22;29727;47.606;19.130;2023-03-23T13:34:15;24.40;36.70
44063;DHT22;29727;47.606;19.130;2023-03-23T13:36:43;24.40;36.10
44063;DHT22;29727;47.606;19.130;2023-03-23T13:44:55;24.50;36.70
44063;DHT22;29727;47.606;19.130;2023-03-23T13:50:03;24.60;37.00
44063;DHT22;29727;47.606;19.130;2023-03-23T14:05:42;24.80;35.90
44063;DHT22;29727;47.606;19.130;2023-03-23T14:16:24;24.70;35.80
44063;DHT22;29727;47.606;19.130;2023-03-23T14:19:00;24.70;35.70
44063;DHT22;29727;47.606;19.130;2023-03-23T14:21:39;24.70;36.10
44063;DHT22;29727;47.606;19.130;2023-03-23T14:24:16;24.60;36.00
44063;DHT22;29727;47.606;19.130;2023-03-23T14:26:42;24.50;36.30
44063;DHT22;29727;47.606;19.130;2023-03-23T14:29:10;24.30;36.10
44063;DHT22;29727;47.606;19.130;2023-03-23T14:31:36;24.20;36.60
44063;DHT22;29727;47.606;19.130;2023-03-23T14:34:21;24.10;37.00
44063;DHT22;29727;47.606;19.130;2023-03-23T14:36:47;24.00;36.70
44063;DHT22;29727;47.606;19.130;2023-03-23T14:41:46;24.00;37.30
44063;DHT22;29727;47.606;19.130;2023-03-23T14:44:21;23.90;37.30
44063;DHT22;29727;47.606;19.130;2023-03-23T14:46:47;23.90;37.30
44063;DHT22;29727;47.606;19.130;2023-03-23T14:49:15;24.00;37.10
44063;DHT22;29727;47.606;19.130;2023-03-23T14:51:53;24.00;36.90
44063;DHT22;29727;47.606;19.130;2023-03-23T14:54:23;24.00;37.40
44063;DHT22;29727;47.606;19.130;2023-03-23T14:56:50;23.90;37.20
44063;DHT22;29727;47.606;19.130;2023-03-23T14:59:16;23.80;36.50
44063;DHT22;29727;47.606;19.130;2023-03-23T15:01:42;23.80;37.10
44063;DHT22;29727;47.606;19.130;2023-03-23T15:04:21;23.80;37.20
44063;DHT22;29727;47.606;19.130;2023-03-23T15:06:58;23.70;37.40
44063;DHT22;29727;47.606;19.130;2023-03-23T15:09:25;23.60;37.50
44063;DHT22;29727;47.606;19.130;2023-03-23T15:12:01;23.60;37.90
44063;DHT22;29727;47.606;19.130;2023-03-23T15:14:32;23.50;38.00
44063;DHT22;29727;47.606;19.130;2023-03-23T15:17:00;23.50;37.90
44063;DHT22;29727;47.606;19.130;2023-03-23T15:19:31;23.40;38.20
44063;DHT22;29727;47.606;19.130;2023-03-23T15:22:11;23.40;38.00
44063;DHT22;29727;47.606;19.130;2023-03-23T15:24:40;23.40;37.80
44063;DHT22;29727;47.606;19.130;2023-03-23T15:29:32;23.20;38.30
44063;DHT22;29727;47.606;19.130;2023-03-23T15:31:57;23.20;38.60
44063;DHT22;29727;47.606;19.130;2023-03-23T15:34:35;23.10;38.30
44063;DHT22;29727;47.606;19.130;2023-03-23T15:37:20;23.10;38.50
44063;DHT22;29727;47.606;19.130;2023-03-23T15:39:47;23.00;38.50
44063;DHT22;29727;47.606;19.130;2023-03-23T15:42:32;23.00;38.60
44063;DHT22;29727;47.606;19.130;2023-03-23T15:47:47;22.80;38.80
44063;DHT22;29727;47.606;19.130;2023-03-23T15:50:17;22.80;39.00
44063;DHT22;29727;47.606;19.130;2023-03-23T15:52:43;22.80;39.20
44063;DHT22;29727;47.606;19.130;2023-03-23T15:57:48;22.80;39.30
44063;DHT22;29727;47.606;19.130;2023-03-23T16:00:20;22.70;39.30
44063;DHT22;29727;47.606;19.130;2023-03-23T16:03:14;22.70;39.70
44063;DHT22;29727;47.606;19.130;2023-03-23T16:05:42;22.70;39.50
44063;DHT22;29727;47.606;19.130;2023-03-23T16:08:10;22.60;39.40
44063;DHT22;29727;47.606;19.130;2023-03-23T16:10:36;22.60;39.40
44063;DHT22;29727;47.606;19.130;2023-03-23T16:13:02;22.50;39.30
44063;DHT22;29727;47.606;19.130;2023-03-23T16:15:29;22.50;39.70
44063;DHT22;29727;47.606;19.130;2023-03-23T16:17:55;22.40;39.60
44063;DHT22;29727;47.606;19.130;2023-03-23T16:20:22;22.30;39.60
44063;DHT22;29727;47.606;19.130;2023-03-23T16:22:49;22.30;40.00
44063;DHT22;29727;47.606;19.130;2023-03-23T16:25:15;22.20;39.90
44063;DHT22;29727;47.606;19.130;2023-03-23T16:27:42;22.10;40.10
44063;DHT22;29727;47.606;19.130;2023-03-23T16:30:15;22.10;40.50
44063;DHT22;29727;47.606;19.130;2023-03-23T16:32:42;22.00;40.10
44063;DHT22;29727;47.606;19.130;2023-03-23T16:35:09;22.00;40.50
44063;DHT22;29727;47.606;19.130;2023-03-23T16:37:35;22.00;40.60
44063;DHT22;29727;47.606;19.130;2023-03-23T16:40:01;22.00;40.60
44063;DHT22;29727;47.606;19.130;2023-03-23T16:42:27;21.90;40.60
44063;DHT22;29727;47.606;19.130;2023-03-23T16:44:53;21.90;41.10
44063;DHT22;29727;47.606;19.130;2023-03-23T16:47:19;21.90;41.00
44063;DHT22;29727;47.606;19.130;2023-03-23T16:49:52;21.90;41.50
44063;DHT22;29727;47.606;19.130;2023-03-23T16:52:18;21.80;41.70
44063;DHT22;29727;47.606;19.130;2023-03-23T16:54:44;21.80;42.10
44063;DHT22;29727;47.606;19.130;2023-03-23T16:57:11;21.70;41.80
44063;DHT22;29727;47.606;19.130;2023-03-23T16:59:36;21.70;41.70
44063;DHT22;29727;47.606;19.130;2023-03-23T17:02:03;21.70;42.20
44063;DHT22;29727;47.606;19.130;2023-03-23T17:04:30;21.60;42.20
44063;DHT22;29727;47.606;19.130;2023-03-23T17:06:56;21.60;42.30
44063;DHT22;29727;47.606;19.130;2023-03-23T17:09:24;21.50;42.10
44063;DHT22;29727;47.606;19.130;2023-03-23T17:11:51;21.40;42.10
44063;DHT22;29727;47.606;19.130;2023-03-23T17:14:16;21.30;42.70
44063;DHT22;29727;47.606;19.130;2023-03-23T17:16:42;21.30;42.80
44063;DHT22;29727;47.606;19.130;2023-03-23T17:19:08;21.20;43.00
44063;DHT22;29727;47.606;19.130;2023-03-23T17:21:33;21.10;43.10
44063;DHT22;29727;47.606;19.130;2023-03-23T17:23:59;21.00;43.80
44063;DHT22;29727;47.606;19.130;2023-03-23T17:26:25;20.90;43.80
44063;DHT22;29727;47.606;19.130;2023-03-23T17:28:50;20.80;44.30
44063;DHT22;29727;47.606;19.130;2023-03-23T17:31:16;20.80;44.70
44063;DHT22;29727;47.606;19.130;2023-03-23T17:33:42;20.70;44.50
44063;DHT22;29727;47.606;19.130;2023-03-23T17:36:07;20.70;45.30
44063;DHT22;29727;47.606;19.130;2023-03-23T17:38:33;20.60;45.40
44063;DHT22;29727;47.606;19.130;2023-03-23T17:41:00;20.50;45.50
44063;DHT22;29727;47.606;19.130;2023-03-23T17:43:26;20.40;45.50
44063;DHT22;29727;47.606;19.130;2023-03-23T17:45:52;20.30;46.00
44063;DHT22;29727;47.606;19.130;2023-03-23T17:48:18;20.20;46.20
44063;DHT22;29727;47.606;19.130;2023-03-23T17:50:47;20.10;46.60
44063;DHT22;29727;47.606;19.130;2023-03-23T17:53:14;20.00;46.80
44063;DHT22;29727;47.606;19.130;2023-03-23T17:55:40;19.90;46.40
44063;DHT22;29727;47.606;19.130;2023-03-23T17:58:08;19.80;46.80
44063;DHT22;29727;47.606;19.130;2023-03-23T18:00:34;19.80;47.30
44063;DHT22;29727;47.606;19.130;2023-03-23T18:03:00;19.70;47.50
44063;DHT22;29727;47.606;19.130;2023-03-23T18:05:26;19.60;47.80
44063;DHT22;29727;47.606;19.130;2023-03-23T18:07:52;19.50;48.10
44063;DHT22;29727;47.606;19.130;2023-03-23T18:10:18;19.40;48.00